^^
Meteo Knjazevac Station Historical Data
Daily Summary for August 09, 2022 Units:  English    Metric   Both
Daily Weekly Monthly Yearly Custom
  High: Low: Average:
Temperature: 91.9 °F 67.3 °F 78 °F
Dew Point: 69.6 °F 61.3 °F 64.7 °F
Humidity: 86% 39% 66%
Wind Speed: 8mph 0mph 2.4mph
Wind Gust: 16mph - -
Wind- - South
Pressure: 30.12 in 30.02 in -
Precipitation: 0.00 in    
Historical Graphs
 
 
Tabular Data for August 09, 2022
Time Temperature Dew Point Pressure Wind Wind Speed Wind Gust Humidity Rainfall Rate (Hourly) solar Conditions
00:00 70.6 °F 61.9 °F 30.08 in North 2 mph 5 mph 74% 0.00 in 0 W/m2
00:05 70.3 °F 62 °F 30.08 in Calm   3 mph 75% 0.00 in 0 W/m2
00:10 70.2 °F 61.9 °F 30.08 in NE 1 mph 2 mph 75% 0.00 in 0 W/m2
00:15 70.2 °F 61.9 °F 30.08 in NW 1 mph 2 mph 75% 0.00 in 0 W/m2
00:20 70 °F 61.7 °F 30.08 in WSW 1 mph 2 mph 75% 0.00 in 0 W/m2
00:25 69.8 °F 62.3 °F 30.08 in Calm   2 mph 77% 0.00 in 0 W/m2
00:30 69.6 °F 62.1 °F 30.08 in SE 2 mph 5 mph 77% 0.00 in 0 W/m2
00:35 69.4 °F 61.9 °F 30.08 in Calm   2 mph 77% 0.00 in 0 W/m2
00:40 69.4 °F 62.2 °F 30.08 in East 2 mph 5 mph 78% 0.00 in 0 W/m2
00:45 69.2 °F 62 °F 30.08 in SSE 1 mph 3 mph 78% 0.00 in 0 W/m2
00:55 68.9 °F 61.8 °F 30.08 in West 1 mph 2 mph 78% 0.00 in 0 W/m2
01:00 68.7 °F 61.6 °F 30.08 in Calm   2 mph 78% 0.00 in 0 W/m2
01:05 68.7 °F 61.9 °F 30.08 in Calm     79% 0.00 in 0 W/m2
01:15 68.5 °F 61.8 °F 30.08 in WNW 1 mph 2 mph 79% 0.00 in 0 W/m2
01:25 68.2 °F 61.4 °F 30.08 in Calm   2 mph 79% 0.00 in 0 W/m2
01:30 68.2 °F 61.4 °F 30.08 in WNW 1 mph 2 mph 79% 0.00 in 0 W/m2
01:35 68.1 °F 61.3 °F 30.09 in Calm   2 mph 79% 0.00 in 0 W/m2
01:40 68.2 °F 61.8 °F 30.09 in Calm   2 mph 80% 0.00 in 0 W/m2
01:45 68 °F 61.6 °F 30.09 in Calm   2 mph 80% 0.00 in 0 W/m2
01:50 68.2 °F 61.8 °F 30.09 in Calm   2 mph 80% 0.00 in 0 W/m2
01:55 68.2 °F 61.8 °F 30.09 in Calm   1 mph 80% 0.00 in 0 W/m2
02:00 68.2 °F 61.8 °F 30.09 in Calm   2 mph 80% 0.00 in 0 W/m2
02:05 68.2 °F 61.8 °F 30.09 in Calm   3 mph 80% 0.00 in 0 W/m2
02:10 68.2 °F 62.1 °F 30.09 in ESE 1 mph 3 mph 81% 0.00 in 0 W/m2
02:15 68.2 °F 62.1 °F 30.09 in SE 2 mph 4 mph 81% 0.00 in 0 W/m2
02:25 68 °F 61.9 °F 30.09 in NE 1 mph 3 mph 81% 0.00 in 0 W/m2
02:30 68.2 °F 62.1 °F 30.09 in ENE 1 mph 3 mph 81% 0.00 in 0 W/m2
02:35 68.2 °F 62.1 °F 30.09 in NNE 1 mph 2 mph 81% 0.00 in 0 W/m2
02:40 68.4 °F 61.9 °F 30.09 in NW 2 mph 3 mph 80% 0.00 in 0 W/m2
02:50 68.5 °F 62.5 °F 30.09 in West 1 mph 2 mph 81% 0.00 in 0 W/m2
03:00 68.6 °F 62.2 °F 30.09 in Calm   2 mph 80% 0.00 in 0 W/m2
03:05 68.7 °F 62.3 °F 30.09 in Calm   2 mph 80% 0.00 in 0 W/m2
03:10 68.7 °F 62.3 °F 30.09 in Calm   2 mph 80% 0.00 in 0 W/m2
03:15 68.7 °F 62.3 °F 30.09 in WNW 1 mph 2 mph 80% 0.00 in 0 W/m2
03:20 68.7 °F 62.3 °F 30.09 in NW 1 mph 2 mph 80% 0.00 in 0 W/m2
03:25 68.9 °F 62.5 °F 30.09 in WNW 1 mph 2 mph 80% 0.00 in 0 W/m2
03:30 68.9 °F 62.5 °F 30.09 in WNW 1 mph 2 mph 80% 0.00 in 0 W/m2
03:35 68.7 °F 62.3 °F 30.09 in Calm   2 mph 80% 0.00 in 0 W/m2
03:40 68.9 °F 62.5 °F 30.09 in Calm   2 mph 80% 0.00 in 0 W/m2
03:45 68.9 °F 62.5 °F 30.08 in WNW 1 mph 2 mph 80% 0.00 in 0 W/m2
03:50 68.9 °F 62.5 °F 30.08 in Calm   2 mph 80% 0.00 in 0 W/m2
04:00 68.9 °F 62.8 °F 30.08 in WNW 1 mph 2 mph 81% 0.00 in 0 W/m2
04:10 68.7 °F 62.7 °F 30.08 in Calm   1 mph 81% 0.00 in 0 W/m2
04:15 68.7 °F 62.7 °F 30.08 in WSW 1 mph 2 mph 81% 0.00 in 0 W/m2
04:20 68.5 °F 62.5 °F 30.08 in Calm   2 mph 81% 0.00 in 0 W/m2
04:25 68.4 °F 62.4 °F 30.08 in Calm   2 mph 81% 0.00 in 0 W/m2
04:30 68.4 °F 62.3 °F 30.08 in Calm   2 mph 81% 0.00 in 0 W/m2
04:35 68.2 °F 62.5 °F 30.08 in WNW 1 mph 2 mph 82% 0.00 in 0 W/m2
04:40 68.2 °F 62.8 °F 30.08 in NW 2 mph 2 mph 83% 0.00 in 0 W/m2
04:45 68.2 °F 62.5 °F 30.09 in Calm   2 mph 82% 0.00 in 0 W/m2
04:50 68.2 °F 62.1 °F 30.08 in Calm   1 mph 81% 0.00 in 0 W/m2
04:55 68.2 °F 62.5 °F 30.08 in NW 1 mph 2 mph 82% 0.00 in 0 W/m2
05:00 68.4 °F 62.6 °F 30.08 in Calm   2 mph 82% 0.00 in 0 W/m2
05:05 68.3 °F 62.9 °F 30.08 in Calm   2 mph 83% 0.00 in 0 W/m2
05:10 68.2 °F 62.8 °F 30.08 in Calm   2 mph 83% 0.00 in 0 W/m2
05:15 68.2 °F 62.8 °F 30.08 in Calm   2 mph 83% 0.00 in 0 W/m2
05:20 68 °F 62.6 °F 30.08 in Calm   1 mph 83% 0.00 in 0 W/m2
05:25 67.8 °F 62.5 °F 30.09 in Calm   2 mph 83% 0.00 in 0 W/m2
05:30 67.8 °F 62.8 °F 30.08 in Calm   1 mph 84% 0.00 in 2 W/m2
05:35 67.6 °F 62.6 °F 30.08 in WSW 1 mph 2 mph 84% 0.00 in 3 W/m2
05:45 67.5 °F 62.5 °F 30.08 in Calm     84% 0.00 in 8 W/m2
05:55 67.5 °F 62.8 °F 30.09 in Calm   2 mph 85% 0.00 in 18 W/m2
06:00 67.3 °F 62.6 °F 30.08 in Calm   1 mph 85% 0.00 in 24 W/m2
06:05 67.3 °F 62.6 °F 30.09 in Calm   2 mph 85% 0.00 in 30 W/m2
06:10 67.3 °F 62.6 °F 30.09 in NW 2 mph 3 mph 85% 0.00 in 38 W/m2
06:20 67.7 °F 63.1 °F 30.09 in NNE 2 mph 5 mph 85% 0.00 in 38 W/m2
06:25 67.8 °F 63.1 °F 30.09 in NNE 1 mph 4 mph 85% 0.00 in 39 W/m2
06:35 67.6 °F 63 °F 30.10 in Calm   2 mph 85% 0.00 in 44 W/m2
06:45 67.3 °F 62.9 °F 30.10 in NNE 1 mph 2 mph 86% 0.00 in 51 W/m2
06:50 67.3 °F 62.6 °F 30.10 in Calm   2 mph 85% 0.00 in 53 W/m2
06:55 67.3 °F 62.9 °F 30.11 in Calm   2 mph 86% 0.00 in 53 W/m2
07:00 67.3 °F 62.9 °F 30.11 in Calm   2 mph 86% 0.00 in 60 W/m2
07:05 67.3 °F 62.9 °F 30.11 in Calm   2 mph 86% 0.00 in 72 W/m2
07:20 67.6 °F 63.3 °F 30.12 in SW 1 mph 2 mph 86% 0.00 in 92 W/m2
07:30 67.8 °F 63.5 °F 30.12 in WSW 1 mph 3 mph 86% 0.00 in 100 W/m2
07:35 68 °F 63.7 °F 30.12 in Calm   2 mph 86% 0.00 in 91 W/m2
07:40 68 °F 63.3 °F 30.12 in West 2 mph 3 mph 85% 0.00 in 82 W/m2
07:45 68.2 °F 63.5 °F 30.12 in Calm   2 mph 85% 0.00 in 95 W/m2
07:50 68.2 °F 63.5 °F 30.12 in Calm   2 mph 85% 0.00 in 248 W/m2
07:55 68.4 °F 63.7 °F 30.12 in Calm   2 mph 85% 0.00 in 126 W/m2
08:00 68.7 °F 64 °F 30.12 in Calm   1 mph 85% 0.00 in 131 W/m2
08:05 68.9 °F 64.5 °F 30.12 in SW 1 mph 2 mph 86% 0.00 in 156 W/m2
08:10 69.3 °F 64.6 °F 30.12 in WSW 1 mph 2 mph 85% 0.00 in 169 W/m2
08:15 69.6 °F 64.9 °F 30.12 in NW 1 mph 3 mph 85% 0.00 in 254 W/m2
08:20 70 °F 64.9 °F 30.12 in Calm   2 mph 84% 0.00 in 312 W/m2
08:25 70.6 °F 65.6 °F 30.12 in Calm   4 mph 84% 0.00 in 340 W/m2
08:30 71.1 °F 65.6 °F 30.12 in NNE 1 mph 3 mph 83% 0.00 in 235 W/m2
08:35 71.4 °F 65.6 °F 30.12 in NE 1 mph 5 mph 82% 0.00 in 225 W/m2
08:40 71.8 °F 65.6 °F 30.12 in NE 3 mph 5 mph 81% 0.00 in 525 W/m2
08:45 72.5 °F 66 °F 30.12 in NE 1 mph 5 mph 80% 0.00 in 539 W/m2
08:50 73.5 °F 66.5 °F 30.12 in East 2 mph 4 mph 79% 0.00 in 554 W/m2
09:00 74.8 °F 67.1 °F 30.12 in East 1 mph 4 mph 77% 0.00 in 383 W/m2
09:15 75 °F 66.6 °F 30.12 in SSW 1 mph 3 mph 75% 0.00 in 288 W/m2
09:25 77 °F 67.7 °F 30.12 in North 1 mph 7 mph 73% 0.00 in 649 W/m2
09:30 78.2 °F 68.5 °F 30.12 in South 3 mph 6 mph 72% 0.00 in 658 W/m2
09:40 79.5 °F 68.4 °F 30.12 in NW 2 mph 12 mph 69% 0.00 in 687 W/m2
09:45 80.2 °F 68.2 °F 30.12 in North 2 mph 8 mph 67% 0.00 in 696 W/m2
09:50 80.7 °F 68.3 °F 30.12 in NNW 3 mph 8 mph 66% 0.00 in 704 W/m2
09:55 81.2 °F 68.3 °F 30.12 in North 3 mph 13 mph 65% 0.00 in 709 W/m2
10:00 81.7 °F 67.9 °F 30.12 in North 3 mph 8 mph 63% 0.00 in 718 W/m2
10:05 82 °F 67.7 °F 30.12 in North 8 mph 13 mph 62% 0.00 in 725 W/m2
10:10 82.3 °F 68.5 °F 30.12 in North 3 mph 13 mph 63% 0.00 in 741 W/m2
10:15 82.9 °F 68 °F 30.12 in North 7 mph 12 mph 61% 0.00 in 752 W/m2
10:20 83.1 °F 67.7 °F 30.11 in North 5 mph 11 mph 60% 0.00 in 767 W/m2
10:25 83.3 °F 68 °F 30.12 in North 6 mph 13 mph 60% 0.00 in 778 W/m2
10:30 83.6 °F 67.8 °F 30.11 in North 2 mph 7 mph 59% 0.00 in 788 W/m2
10:35 84 °F 68.1 °F 30.11 in NNW 5 mph 8 mph 59% 0.00 in 789 W/m2
10:40 84 °F 67.7 °F 30.11 in North 5 mph 9 mph 58% 0.00 in 806 W/m2
10:45 84.2 °F 68.3 °F 30.11 in North 5 mph 9 mph 59% 0.00 in 691 W/m2
10:50 84.7 °F 68.3 °F 30.11 in NNE 5 mph 9 mph 58% 0.00 in 170 W/m2
10:55 84.9 °F 68 °F 30.10 in NNE 5 mph 10 mph 57% 0.00 in 820 W/m2
11:00 85.1 °F 68.2 °F 30.10 in North 3 mph 9 mph 57% 0.00 in 839 W/m2
11:10 85.6 °F 68.7 °F 30.10 in NNE 5 mph 11 mph 57% 0.00 in 230 W/m2
11:15 85.6 °F 68.7 °F 30.10 in North 3 mph 12 mph 57% 0.00 in 857 W/m2
11:20 86 °F 68.5 °F 30.10 in North 6 mph 13 mph 56% 0.00 in 187 W/m2
11:25 86.2 °F 69.2 °F 30.10 in North 3 mph 10 mph 57% 0.00 in 876 W/m2
11:30 86.5 °F 68.4 °F 30.10 in NNE 5 mph 13 mph 55% 0.00 in 881 W/m2
11:40 86.7 °F 68.6 °F 30.10 in NNW 5 mph 9 mph 55% 0.00 in 890 W/m2
11:45 86.7 °F 68.6 °F 30.09 in North 6 mph 9 mph 55% 0.00 in 894 W/m2
11:50 87.4 °F 68.2 °F 30.10 in North 5 mph 11 mph 53% 0.00 in 898 W/m2
11:55 87.3 °F 68.6 °F 30.09 in North 2 mph 13 mph 54% 0.00 in 901 W/m2
12:00 87.6 °F 68.9 °F 30.09 in North 5 mph 8 mph 54% 0.00 in 904 W/m2
12:05 87.9 °F 68.7 °F 30.09 in NNE 3 mph 13 mph 53% 0.00 in 907 W/m2
12:10 88.2 °F 69.4 °F 30.09 in North 6 mph 12 mph 54% 0.00 in 909 W/m2
12:15 88.5 °F 69.2 °F 30.09 in North 7 mph 14 mph 53% 0.00 in 911 W/m2
12:20 88.3 °F 69 °F 30.09 in NNE 6 mph 14 mph 53% 0.00 in 912 W/m2
12:25 88.5 °F 69.2 °F 30.08 in North 5 mph 14 mph 53% 0.00 in 913 W/m2
12:30 88.3 °F 69 °F 30.08 in NNW 3 mph 10 mph 53% 0.00 in 914 W/m2
12:35 88.5 °F 68.6 °F 30.08 in North 7 mph 12 mph 52% 0.00 in 914 W/m2
12:40 88.7 °F 69.4 °F 30.08 in North 6 mph 13 mph 53% 0.00 in 914 W/m2
12:45 89.1 °F 69.1 °F 30.08 in North 5 mph 14 mph 52% 0.00 in 913 W/m2
12:50 89.5 °F 69.6 °F 30.08 in North 6 mph 12 mph 52% 0.00 in 912 W/m2
12:55 89.6 °F 68.5 °F 30.08 in North 5 mph 13 mph 50% 0.00 in 911 W/m2
13:00 89.8 °F 68.7 °F 30.08 in North 6 mph 12 mph 50% 0.00 in 909 W/m2
13:05 90.1 °F 68.9 °F 30.07 in North 6 mph 13 mph 50% 0.00 in 907 W/m2
13:10 90.3 °F 68.6 °F 30.07 in North 6 mph 14 mph 49% 0.00 in 904 W/m2
13:15 90.4 °F 68.1 °F 30.07 in NNE 6 mph 13 mph 48% 0.00 in 901 W/m2
13:20 90.5 °F 67.5 °F 30.07 in North 7 mph 14 mph 47% 0.00 in 407 W/m2
13:25 89.9 °F 67.6 °F 30.07 in North 6 mph 14 mph 48% 0.00 in 482 W/m2
13:30 88.9 °F 67.3 °F 30.06 in North 6 mph 13 mph 49% 0.00 in 288 W/m2
13:35 89 °F 68 °F 30.06 in North 7 mph 13 mph 50% 0.00 in 886 W/m2
13:40 89.5 °F 67.3 °F 30.06 in North 7 mph 16 mph 48% 0.00 in 881 W/m2
13:50 90.1 °F 67.8 °F 30.06 in North 6 mph 13 mph 48% 0.00 in 870 W/m2
14:00 90.9 °F 67.8 °F 30.05 in North 8 mph 15 mph 47% 0.00 in 857 W/m2
14:05 90.9 °F 67.8 °F 30.05 in NNE 6 mph 13 mph 47% 0.00 in 851 W/m2
14:10 90.7 °F 68.3 °F 30.05 in North 6 mph 13 mph 48% 0.00 in 844 W/m2
14:15 91 °F 68 °F 30.05 in North 7 mph 15 mph 47% 0.00 in 836 W/m2
14:20 91.2 °F 68.8 °F 30.05 in North 6 mph 12 mph 48% 0.00 in 829 W/m2
14:25 91.4 °F 67.7 °F 30.04 in North 5 mph 16 mph 46% 0.00 in 244 W/m2
14:30 90.9 °F 68.5 °F 30.04 in North 2 mph 13 mph 48% 0.00 in 438 W/m2
14:35 90.9 °F 66.6 °F 30.04 in North 8 mph 14 mph 45% 0.00 in 803 W/m2
14:40 91.3 °F 68.3 °F 30.04 in North 5 mph 14 mph 47% 0.00 in 794 W/m2
14:45 91.4 °F 68.3 °F 30.04 in North 3 mph 13 mph 47% 0.00 in 258 W/m2
14:50 91.4 °F 68.3 °F 30.04 in NNE 5 mph 10 mph 47% 0.00 in 265 W/m2
14:55 91.1 °F 66.1 °F 30.04 in North 5 mph 10 mph 44% 0.00 in 765 W/m2
15:00 91.2 °F 66.3 °F 30.04 in NNE 3 mph 10 mph 44% 0.00 in 754 W/m2
15:05 91.5 °F 67.2 °F 30.04 in NNE 5 mph 11 mph 45% 0.00 in 744 W/m2
15:10 91.8 °F 67.4 °F 30.03 in North 5 mph 13 mph 45% 0.00 in 358 W/m2
15:15 91.3 °F 66.3 °F 30.04 in North 5 mph 10 mph 44% 0.00 in 200 W/m2
15:20 90.4 °F 64.8 °F 30.04 in North 5 mph 11 mph 43% 0.00 in 162 W/m2
15:25 89.6 °F 65.5 °F 30.04 in North 1 mph 6 mph 45% 0.00 in 191 W/m2
15:30 89.3 °F 65.2 °F 30.03 in NNW 2 mph 6 mph 45% 0.00 in 174 W/m2
15:35 89.2 °F 66.3 °F 30.03 in NNE 3 mph 9 mph 47% 0.00 in 674 W/m2
15:40 89.7 °F 66.8 °F 30.03 in NNE 3 mph 9 mph 47% 0.00 in 558 W/m2
15:45 90.1 °F 65.9 °F 30.03 in NNW 3 mph 8 mph 45% 0.00 in 648 W/m2
15:50 90.5 °F 65.6 °F 30.03 in NNW 3 mph 8 mph 44% 0.00 in 612 W/m2
15:55 90.5 °F 64.3 °F 30.03 in North 6 mph 10 mph 42% 0.00 in 209 W/m2
16:00 90.3 °F 64.8 °F 30.03 in North 2 mph 8 mph 43% 0.00 in 185 W/m2
16:05 90 °F 65.8 °F 30.02 in North 2 mph 7 mph 45% 0.00 in 595 W/m2
16:10 90.5 °F 64.3 °F 30.02 in NNE 2 mph 7 mph 42% 0.00 in 562 W/m2
16:15 90.9 °F 65.3 °F 30.02 in NE 1 mph 9 mph 43% 0.00 in 567 W/m2
16:20 91.4 °F 65 °F 30.02 in NNE 3 mph 12 mph 42% 0.00 in 553 W/m2
16:25 91.6 °F 65.2 °F 30.02 in NE 3 mph 7 mph 42% 0.00 in 538 W/m2
16:30 91.7 °F 64 °F 30.02 in NE 3 mph 8 mph 40% 0.00 in 524 W/m2
16:35 91.9 °F 64.2 °F 30.02 in ENE 7 mph 12 mph 40% 0.00 in 509 W/m2
16:45 91.4 °F 63 °F 30.02 in NE 6 mph 12 mph 39% 0.00 in 479 W/m2
16:50 91.1 °F 63.4 °F 30.02 in ENE 6 mph 11 mph 40% 0.00 in 416 W/m2
16:55 90.7 °F 64.4 °F 30.02 in East 2 mph 10 mph 42% 0.00 in 156 W/m2
17:10 88.7 °F 64.7 °F 30.02 in NE 5 mph 12 mph 45% 0.00 in 174 W/m2
17:15 88.3 °F 63.7 °F 30.02 in ENE 3 mph 10 mph 44% 0.00 in 162 W/m2
17:20 88 °F 63.4 °F 30.03 in East 3 mph 8 mph 44% 0.00 in 372 W/m2
17:30 88.5 °F 64.5 °F 30.03 in East 6 mph 13 mph 45% 0.00 in 213 W/m2
17:35 88.3 °F 65.5 °F 30.03 in ESE 6 mph 13 mph 47% 0.00 in 168 W/m2
17:40 88 °F 65.3 °F 30.02 in ESE 6 mph 14 mph 47% 0.00 in 232 W/m2
17:45 88 °F 65.8 °F 30.02 in ESE 3 mph 8 mph 48% 0.00 in 236 W/m2
17:50 88 °F 65.8 °F 30.02 in East 3 mph 7 mph 48% 0.00 in 143 W/m2
17:55 87.7 °F 64.9 °F 30.02 in East 2 mph 8 mph 47% 0.00 in 104 W/m2
18:10 86.5 °F 63.9 °F 30.03 in ENE 3 mph 7 mph 47% 0.00 in 62 W/m2
18:15 86.4 °F 64.4 °F 30.03 in NE 1 mph 6 mph 48% 0.00 in 59 W/m2
18:20 86 °F 64.6 °F 30.03 in ENE 1 mph 5 mph 49% 0.00 in 61 W/m2
18:25 85.8 °F 63.9 °F 30.03 in ENE 1 mph 3 mph 48% 0.00 in 78 W/m2
18:30 85.8 °F 64.4 °F 30.03 in West 1 mph 2 mph 49% 0.00 in 92 W/m2
18:35 85.6 °F 64.9 °F 30.03 in WSW 1 mph 2 mph 50% 0.00 in 101 W/m2
18:45 85.3 °F 64.6 °F 30.03 in WNW 3 mph 6 mph 50% 0.00 in 45 W/m2
18:50 84.8 °F 65.2 °F 30.04 in WNW 3 mph 6 mph 52% 0.00 in 33 W/m2
18:55 84.2 °F 65.2 °F 30.04 in NW 3 mph 10 mph 53% 0.00 in 29 W/m2
19:00 83.8 °F 64.3 °F 30.04 in NNW 5 mph 11 mph 52% 0.00 in 32 W/m2
19:05 83.5 °F 64.5 °F 30.04 in NNW 3 mph 10 mph 53% 0.00 in 29 W/m2
19:10 83.3 °F 64.9 °F 30.04 in NNW 2 mph 5 mph 54% 0.00 in 28 W/m2
19:15 83 °F 65.1 °F 30.05 in NW 2 mph 6 mph 55% 0.00 in 25 W/m2
19:25 82.1 °F 65.3 °F 30.05 in WNW 2 mph 5 mph 57% 0.00 in 18 W/m2
19:30 81.5 °F 64.8 °F 30.06 in WNW 2 mph 7 mph 57% 0.00 in 14 W/m2
19:35 81 °F 64.3 °F 30.06 in WNW 3 mph 6 mph 57% 0.00 in 9 W/m2
19:40 80.6 °F 64.5 °F 30.06 in WNW 2 mph 6 mph 58% 0.00 in 5 W/m2
19:45 80.2 °F 64.1 °F 30.06 in West 3 mph 6 mph 58% 0.00 in 0 W/m2
19:50 79.9 °F 63.8 °F 30.07 in West 3 mph 6 mph 58% 0.00 in 0 W/m2
19:55 79.5 °F 63.9 °F 30.06 in West 3 mph 6 mph 59% 0.00 in 0 W/m2
20:00 79.2 °F 63.6 °F 30.07 in West 2 mph 6 mph 59% 0.00 in 0 W/m2
20:05 79 °F 63.4 °F 30.07 in WNW 2 mph 6 mph 59% 0.00 in 0 W/m2
20:10 78.6 °F 63.6 °F 30.08 in WNW 2 mph 4 mph 60% 0.00 in 0 W/m2
20:15 78.4 °F 63.4 °F 30.08 in NW 1 mph 4 mph 60% 0.00 in 0 W/m2
20:20 78.3 °F 64.2 °F 30.08 in WNW 2 mph 6 mph 62% 0.00 in 0 W/m2
20:25 77.9 °F 63.9 °F 30.08 in WNW 2 mph 5 mph 62% 0.00 in 0 W/m2
20:35 77.4 °F 63.8 °F 30.08 in WNW 1 mph 5 mph 63% 0.00 in 0 W/m2
20:40 77.2 °F 63.6 °F 30.09 in WNW 1 mph 3 mph 63% 0.00 in 0 W/m2
20:45 77 °F 63.9 °F 30.09 in WNW 2 mph 4 mph 64% 0.00 in 0 W/m2
20:50 76.7 °F 63.6 °F 30.09 in WNW 2 mph 3 mph 64% 0.00 in 0 W/m2
21:05 75.9 °F 63.3 °F 30.09 in WSW 1 mph 2 mph 65% 0.00 in 0 W/m2
21:10 75.4 °F 63.7 °F 30.09 in SSW 2 mph 3 mph 67% 0.00 in 0 W/m2
21:15 75 °F 63.3 °F 30.10 in Calm   2 mph 67% 0.00 in 0 W/m2
21:20 74.5 °F 63.2 °F 30.10 in SW 1 mph 2 mph 68% 0.00 in 0 W/m2
21:25 74.1 °F 63.3 °F 30.10 in SSE 2 mph 3 mph 69% 0.00 in 0 W/m2
21:30 73.9 °F 63.1 °F 30.10 in Calm   3 mph 69% 0.00 in 0 W/m2
21:35 73.8 °F 63 °F 30.10 in Calm     69% 0.00 in 0 W/m2
21:45 73.2 °F 62.8 °F 30.10 in West 2 mph 3 mph 70% 0.00 in 0 W/m2
21:50 73 °F 63.5 °F 30.10 in WSW 1 mph 3 mph 72% 0.00 in 0 W/m2
22:00 72.7 °F 63.1 °F 30.10 in NW 1 mph 2 mph 72% 0.00 in 0 W/m2
22:05 72.5 °F 63 °F 30.10 in WNW 1 mph 2 mph 72% 0.00 in 0 W/m2
22:10 72.3 °F 63.2 °F 30.10 in WNW 2 mph 4 mph 73% 0.00 in 0 W/m2
22:15 72.1 °F 63 °F 30.10 in WNW 2 mph 4 mph 73% 0.00 in 0 W/m2
22:25 72.1 °F 63 °F 30.10 in Calm   2 mph 73% 0.00 in 0 W/m2
22:30 72 °F 62.8 °F 30.11 in Calm   2 mph 73% 0.00 in 0 W/m2
22:35 71.8 °F 63 °F 30.11 in Calm   3 mph 74% 0.00 in 0 W/m2
22:40 71.6 °F 62.9 °F 30.11 in NW 1 mph 3 mph 74% 0.00 in 0 W/m2
22:45 71.2 °F 62.5 °F 30.11 in West 1 mph 2 mph 74% 0.00 in 0 W/m2
22:50 70.9 °F 62.6 °F 30.10 in SW 2 mph 2 mph 75% 0.00 in 0 W/m2
22:55 70.4 °F 62.1 °F 30.10 in SSW 2 mph 4 mph 75% 0.00 in 0 W/m2
23:00 70 °F 62.8 °F 30.10 in South 3 mph 5 mph 78% 0.00 in 0 W/m2
23:05 69.6 °F 62.5 °F 30.10 in South 1 mph 3 mph 78% 0.00 in 0 W/m2
23:10 69.4 °F 62.6 °F 30.10 in SW 2 mph 3 mph 79% 0.00 in 0 W/m2
23:20 69.3 °F 62.5 °F 30.10 in WSW 2 mph 4 mph 79% 0.00 in 0 W/m2
23:25 69.3 °F 62.5 °F 30.10 in WSW 2 mph 3 mph 79% 0.00 in 0 W/m2
23:30 69.3 °F 62.8 °F 30.10 in West 3 mph 5 mph 80% 0.00 in 0 W/m2
23:35 69.4 °F 63 °F 30.09 in WNW 2 mph 5 mph 80% 0.00 in 0 W/m2
23:45 69.4 °F 62.6 °F 30.09 in SW 1 mph 3 mph 79% 0.00 in 0 W/m2
23:50 69.1 °F 62.7 °F 30.09 in WSW 1 mph 4 mph 80% 0.00 in 0 W/m2
23:55 69.1 °F 62.6 °F 30.09 in WSW 2 mph 3 mph 80% 0.00 in 0 W/m2
Knjazevac, Serbia
Compliments of Weather Underground - 2 mb